KMOX/MOX METAR and TAF weather

Enter ICAO airport designator
Station Type Date Time Source
KMOX METAR 2019/02/17 16:15 UTC NOAA

KMOX 171615Z AUTO 07008KT 10SM CLR M09/M13 A3004 RMK AO2


Station Type Date Time Source
KMOX Decoded METAR 2019/02/17 16:15 UTC NOAA

Morris, Morris Municipal Airport, MN, United States (KMOX) 45-34N 095-58W
Feb 17, 2019 - 11:15 AM EST / 2019.02.17 1615 UTC
Wind: from the ENE (070 degrees) at 9 MPH (8 KT):0
Visibility: 10 mile(s):0
Sky conditions: clear
Temperature: 15 F (-9 C)
Windchill: 3 F (-16 C):1
Dew Point: 8 F (-13 C)
Relative Humidity: 72%
Pressure (altimeter): 30.04 in. Hg (1017 hPa)
ob: KMOX 171615Z AUTO 07008KT 10SM CLR M09/M13 A3004 RMK AO2
cycle: 16

Station Type Date Time Source
KMOX TAF UTC NOAA

Error!


Example: see airport list